sensor_id;sensor_type;location;lat;lon;timestamp;temperature;humidity
37242;DHT22;23135;51.078;12.108;2023-04-06T00:01:36;2.50;99.90
37242;DHT22;23135;51.078;12.108;2023-04-06T00:04:02;2.60;99.90
37242;DHT22;23135;51.078;12.108;2023-04-06T00:06:28;2.60;99.90
37242;DHT22;23135;51.078;12.108;2023-04-06T00:08:53;2.70;99.90
37242;DHT22;23135;51.078;12.108;2023-04-06T00:11:19;2.80;99.90
37242;DHT22;23135;51.078;12.108;2023-04-06T00:13:45;2.80;99.90
37242;DHT22;23135;51.078;12.108;2023-04-06T00:16:10;2.70;99.90
37242;DHT22;23135;51.078;12.108;2023-04-06T00:18:36;2.70;99.90
37242;DHT22;23135;51.078;12.108;2023-04-06T00:21:02;2.70;99.90
37242;DHT22;23135;51.078;12.108;2023-04-06T00:23:27;2.70;99.90
37242;DHT22;23135;51.078;12.108;2023-04-06T00:25:53;2.70;99.90
37242;DHT22;23135;51.078;12.108;2023-04-06T00:28:19;2.70;99.90
37242;DHT22;23135;51.078;12.108;2023-04-06T00:30:50;2.70;99.90
37242;DHT22;23135;51.078;12.108;2023-04-06T00:33:18;2.70;99.90
37242;DHT22;23135;51.078;12.108;2023-04-06T00:35:43;2.70;99.90
37242;DHT22;23135;51.078;12.108;2023-04-06T00:38:09;2.70;99.90
37242;DHT22;23135;51.078;12.108;2023-04-06T00:40:35;2.60;99.90
37242;DHT22;23135;51.078;12.108;2023-04-06T00:43:01;2.60;99.90
37242;DHT22;23135;51.078;12.108;2023-04-06T00:45:27;2.60;99.90
37242;DHT22;23135;51.078;12.108;2023-04-06T00:47:52;2.50;99.90
37242;DHT22;23135;51.078;12.108;2023-04-06T00:50:18;2.50;99.90
37242;DHT22;23135;51.078;12.108;2023-04-06T00:52:43;2.50;99.90
37242;DHT22;23135;51.078;12.108;2023-04-06T00:55:09;2.50;99.90
37242;DHT22;23135;51.078;12.108;2023-04-06T00:57:35;2.50;99.90
37242;DHT22;23135;51.078;12.108;2023-04-06T01:00:01;2.40;99.90
37242;DHT22;23135;51.078;12.108;2023-04-06T01:02:27;2.50;99.90
37242;DHT22;23135;51.078;12.108;2023-04-06T01:04:53;2.50;99.90
37242;DHT22;23135;51.078;12.108;2023-04-06T01:07:19;2.50;99.90
37242;DHT22;23135;51.078;12.108;2023-04-06T01:09:45;2.50;99.90
37242;DHT22;23135;51.078;12.108;2023-04-06T01:12:10;2.40;99.90
37242;DHT22;23135;51.078;12.108;2023-04-06T01:14:36;2.40;99.90
37242;DHT22;23135;51.078;12.108;2023-04-06T01:17:01;2.40;99.90
37242;DHT22;23135;51.078;12.108;2023-04-06T01:19:28;2.40;99.90
37242;DHT22;23135;51.078;12.108;2023-04-06T01:21:54;2.40;99.90
37242;DHT22;23135;51.078;12.108;2023-04-06T01:24:20;2.40;99.90
37242;DHT22;23135;51.078;12.108;2023-04-06T01:26:46;2.40;99.90
37242;DHT22;23135;51.078;12.108;2023-04-06T01:29:11;2.40;99.90
37242;DHT22;23135;51.078;12.108;2023-04-06T01:31:38;2.40;99.90
37242;DHT22;23135;51.078;12.108;2023-04-06T01:34:04;2.30;99.90
37242;DHT22;23135;51.078;12.108;2023-04-06T01:36:30;2.30;99.90
37242;DHT22;23135;51.078;12.108;2023-04-06T01:38:56;2.30;99.90
37242;DHT22;23135;51.078;12.108;2023-04-06T01:41:21;2.30;99.90
37242;DHT22;23135;51.078;12.108;2023-04-06T01:43:48;2.30;99.90
37242;DHT22;23135;51.078;12.108;2023-04-06T01:46:14;2.30;99.90
37242;DHT22;23135;51.078;12.108;2023-04-06T01:48:40;2.30;99.90
37242;DHT22;23135;51.078;12.108;2023-04-06T01:51:05;2.30;99.90
37242;DHT22;23135;51.078;12.108;2023-04-06T01:53:31;2.30;99.90
37242;DHT22;23135;51.078;12.108;2023-04-06T01:55:56;2.30;99.90
37242;DHT22;23135;51.078;12.108;2023-04-06T01:58:22;2.30;99.90
37242;DHT22;23135;51.078;12.108;2023-04-06T02:00:47;2.30;99.90
37242;DHT22;23135;51.078;12.108;2023-04-06T02:03:13;2.20;99.90
37242;DHT22;23135;51.078;12.108;2023-04-06T02:05:40;2.20;99.90
37242;DHT22;23135;51.078;12.108;2023-04-06T02:08:06;2.30;99.90
37242;DHT22;23135;51.078;12.108;2023-04-06T02:10:32;2.20;99.90
37242;DHT22;23135;51.078;12.108;2023-04-06T02:12:58;2.20;99.90
37242;DHT22;23135;51.078;12.108;2023-04-06T02:15:24;2.10;99.90
37242;DHT22;23135;51.078;12.108;2023-04-06T02:17:51;2.10;99.90
37242;DHT22;23135;51.078;12.108;2023-04-06T02:20:16;2.10;99.90
37242;DHT22;23135;51.078;12.108;2023-04-06T02:22:42;2.00;99.90
37242;DHT22;23135;51.078;12.108;2023-04-06T02:25:08;2.00;99.90
37242;DHT22;23135;51.078;12.108;2023-04-06T02:27:34;2.00;99.90
37242;DHT22;23135;51.078;12.108;2023-04-06T02:30:00;1.90;99.90
37242;DHT22;23135;51.078;12.108;2023-04-06T02:32:26;1.80;99.90
37242;DHT22;23135;51.078;12.108;2023-04-06T02:34:52;1.80;99.90
37242;DHT22;23135;51.078;12.108;2023-04-06T02:37:17;1.70;99.90
37242;DHT22;23135;51.078;12.108;2023-04-06T02:39:43;1.60;99.90
37242;DHT22;23135;51.078;12.108;2023-04-06T02:42:08;1.60;99.90
37242;DHT22;23135;51.078;12.108;2023-04-06T02:44:34;1.50;99.90
37242;DHT22;23135;51.078;12.108;2023-04-06T02:47:00;1.60;99.90
37242;DHT22;23135;51.078;12.108;2023-04-06T02:49:25;1.70;99.90
37242;DHT22;23135;51.078;12.108;2023-04-06T02:51:51;1.70;99.90
37242;DHT22;23135;51.078;12.108;2023-04-06T02:54:16;1.80;99.90
37242;DHT22;23135;51.078;12.108;2023-04-06T02:56:43;1.90;99.90
37242;DHT22;23135;51.078;12.108;2023-04-06T02:59:08;2.00;99.90
37242;DHT22;23135;51.078;12.108;2023-04-06T03:01:34;2.00;99.90
37242;DHT22;23135;51.078;12.108;2023-04-06T03:03:59;2.10;99.90
37242;DHT22;23135;51.078;12.108;2023-04-06T03:06:25;2.10;99.90
37242;DHT22;23135;51.078;12.108;2023-04-06T03:08:51;2.10;99.90
37242;DHT22;23135;51.078;12.108;2023-04-06T03:11:17;2.10;99.90
37242;DHT22;23135;51.078;12.108;2023-04-06T03:13:42;2.20;99.90
37242;DHT22;23135;51.078;12.108;2023-04-06T03:16:08;2.20;99.90
37242;DHT22;23135;51.078;12.108;2023-04-06T03:18:33;2.20;99.90
37242;DHT22;23135;51.078;12.108;2023-04-06T03:20:59;2.20;99.90
37242;DHT22;23135;51.078;12.108;2023-04-06T03:23:25;2.20;99.90
37242;DHT22;23135;51.078;12.108;2023-04-06T03:25:51;2.20;99.90
37242;DHT22;23135;51.078;12.108;2023-04-06T03:28:17;2.10;99.90
37242;DHT22;23135;51.078;12.108;2023-04-06T03:30:42;2.10;99.90
37242;DHT22;23135;51.078;12.108;2023-04-06T03:33:08;2.10;99.90
37242;DHT22;23135;51.078;12.108;2023-04-06T03:35:33;2.00;99.90
37242;DHT22;23135;51.078;12.108;2023-04-06T03:37:59;2.00;99.90
37242;DHT22;23135;51.078;12.108;2023-04-06T03:40:25;1.90;99.90
37242;DHT22;23135;51.078;12.108;2023-04-06T03:42:50;1.90;99.90
37242;DHT22;23135;51.078;12.108;2023-04-06T03:45:16;1.90;99.90
37242;DHT22;23135;51.078;12.108;2023-04-06T03:47:42;1.80;99.90
37242;DHT22;23135;51.078;12.108;2023-04-06T03:50:07;1.70;99.90
37242;DHT22;23135;51.078;12.108;2023-04-06T03:52:35;1.60;99.90
37242;DHT22;23135;51.078;12.108;2023-04-06T03:55:01;1.60;99.90
37242;DHT22;23135;51.078;12.108;2023-04-06T03:57:26;1.50;99.90
37242;DHT22;23135;51.078;12.108;2023-04-06T03:59:52;1.50;99.90
37242;DHT22;23135;51.078;12.108;2023-04-06T04:02:17;1.40;99.90
37242;DHT22;23135;51.078;12.108;2023-04-06T04:04:43;1.30;99.90
37242;DHT22;23135;51.078;12.108;2023-04-06T04:07:09;1.30;99.90
37242;DHT22;23135;51.078;12.108;2023-04-06T04:09:34;1.30;99.90
37242;DHT22;23135;51.078;12.108;2023-04-06T04:12:00;1.20;99.90
37242;DHT22;23135;51.078;12.108;2023-04-06T04:14:26;1.30;99.90
37242;DHT22;23135;51.078;12.108;2023-04-06T04:16:51;1.20;99.90
37242;DHT22;23135;51.078;12.108;2023-04-06T04:19:17;1.20;99.90
37242;DHT22;23135;51.078;12.108;2023-04-06T04:21:44;1.20;99.90
37242;DHT22;23135;51.078;12.108;2023-04-06T04:24:10;1.10;99.90
37242;DHT22;23135;51.078;12.108;2023-04-06T04:26:36;1.10;99.90
37242;DHT22;23135;51.078;12.108;2023-04-06T04:29:01;1.00;99.90
37242;DHT22;23135;51.078;12.108;2023-04-06T04:31:27;1.00;99.90
37242;DHT22;23135;51.078;12.108;2023-04-06T04:33:52;1.00;99.90
37242;DHT22;23135;51.078;12.108;2023-04-06T04:36:18;1.00;99.90
37242;DHT22;23135;51.078;12.108;2023-04-06T04:38:43;1.00;99.90
37242;DHT22;23135;51.078;12.108;2023-04-06T04:41:09;1.00;99.90
37242;DHT22;23135;51.078;12.108;2023-04-06T04:43:34;1.00;99.90
37242;DHT22;23135;51.078;12.108;2023-04-06T04:46:00;1.00;99.90
37242;DHT22;23135;51.078;12.108;2023-04-06T04:48:26;1.10;99.90
37242;DHT22;23135;51.078;12.108;2023-04-06T04:50:51;1.10;99.90
37242;DHT22;23135;51.078;12.108;2023-04-06T04:53:17;1.20;99.90
37242;DHT22;23135;51.078;12.108;2023-04-06T04:55:42;1.20;99.90
37242;DHT22;23135;51.078;12.108;2023-04-06T04:58:08;1.30;99.90
37242;DHT22;23135;51.078;12.108;2023-04-06T05:00:34;1.30;99.90
37242;DHT22;23135;51.078;12.108;2023-04-06T05:03:00;1.40;99.90
37242;DHT22;23135;51.078;12.108;2023-04-06T05:05:26;1.40;99.90
37242;DHT22;23135;51.078;12.108;2023-04-06T05:07:51;1.40;99.90
37242;DHT22;23135;51.078;12.108;2023-04-06T05:10:17;1.40;99.90
37242;DHT22;23135;51.078;12.108;2023-04-06T05:12:42;1.50;99.90
37242;DHT22;23135;51.078;12.108;2023-04-06T05:15:09;1.50;99.90
37242;DHT22;23135;51.078;12.108;2023-04-06T05:17:35;1.50;99.90
37242;DHT22;23135;51.078;12.108;2023-04-06T05:20:00;1.60;99.90
37242;DHT22;23135;51.078;12.108;2023-04-06T05:22:26;1.60;99.90
37242;DHT22;23135;51.078;12.108;2023-04-06T05:24:51;1.70;99.90
37242;DHT22;23135;51.078;12.108;2023-04-06T05:27:17;1.60;99.90
37242;DHT22;23135;51.078;12.108;2023-04-06T05:29:42;1.60;99.90
37242;DHT22;23135;51.078;12.108;2023-04-06T05:32:08;1.70;99.90
37242;DHT22;23135;51.078;12.108;2023-04-06T05:34:34;1.70;99.90
37242;DHT22;23135;51.078;12.108;2023-04-06T05:36:59;1.70;99.90
37242;DHT22;23135;51.078;12.108;2023-04-06T05:39:25;1.80;99.90
37242;DHT22;23135;51.078;12.108;2023-04-06T05:41:50;1.90;99.90
37242;DHT22;23135;51.078;12.108;2023-04-06T05:44:16;2.00;99.90
37242;DHT22;23135;51.078;12.108;2023-04-06T05:46:42;2.20;99.90
37242;DHT22;23135;51.078;12.108;2023-04-06T05:49:07;2.10;99.90
37242;DHT22;23135;51.078;12.108;2023-04-06T05:51:33;2.10;99.90
37242;DHT22;23135;51.078;12.108;2023-04-06T05:53:59;2.10;99.90
37242;DHT22;23135;51.078;12.108;2023-04-06T05:56:24;2.20;99.90
37242;DHT22;23135;51.078;12.108;2023-04-06T05:58:50;2.30;99.90
37242;DHT22;23135;51.078;12.108;2023-04-06T06:01:16;2.30;99.90
37242;DHT22;23135;51.078;12.108;2023-04-06T06:03:41;2.40;99.90
37242;DHT22;23135;51.078;12.108;2023-04-06T06:06:07;2.40;99.90
37242;DHT22;23135;51.078;12.108;2023-04-06T06:08:32;2.40;99.90
37242;DHT22;23135;51.078;12.108;2023-04-06T06:10:58;2.40;99.90
37242;DHT22;23135;51.078;12.108;2023-04-06T06:13:24;2.40;99.90
37242;DHT22;23135;51.078;12.108;2023-04-06T06:15:50;2.50;99.90
37242;DHT22;23135;51.078;12.108;2023-04-06T06:18:16;2.50;99.90
37242;DHT22;23135;51.078;12.108;2023-04-06T06:20:41;2.50;99.90
37242;DHT22;23135;51.078;12.108;2023-04-06T06:23:07;2.60;99.90
37242;DHT22;23135;51.078;12.108;2023-04-06T06:25:32;2.60;99.90
37242;DHT22;23135;51.078;12.108;2023-04-06T06:27:59;2.70;99.90
37242;DHT22;23135;51.078;12.108;2023-04-06T06:30:25;2.70;99.90
37242;DHT22;23135;51.078;12.108;2023-04-06T06:32:51;2.70;99.90
37242;DHT22;23135;51.078;12.108;2023-04-06T06:35:17;2.70;99.90
37242;DHT22;23135;51.078;12.108;2023-04-06T06:37:42;2.90;99.90
37242;DHT22;23135;51.078;12.108;2023-04-06T06:40:11;3.00;99.90
37242;DHT22;23135;51.078;12.108;2023-04-06T06:42:38;3.20;99.90
37242;DHT22;23135;51.078;12.108;2023-04-06T06:45:05;3.40;99.90
37242;DHT22;23135;51.078;12.108;2023-04-06T06:47:30;3.50;99.90
37242;DHT22;23135;51.078;12.108;2023-04-06T06:49:56;3.60;99.90
37242;DHT22;23135;51.078;12.108;2023-04-06T06:52:22;3.60;99.90
37242;DHT22;23135;51.078;12.108;2023-04-06T06:54:49;3.60;99.90
37242;DHT22;23135;51.078;12.108;2023-04-06T06:57:15;3.70;99.90
37242;DHT22;23135;51.078;12.108;2023-04-06T06:59:40;3.80;99.90
37242;DHT22;23135;51.078;12.108;2023-04-06T07:02:06;4.10;99.90
37242;DHT22;23135;51.078;12.108;2023-04-06T07:04:31;4.50;99.90
37242;DHT22;23135;51.078;12.108;2023-04-06T07:06:57;4.70;99.90
37242;DHT22;23135;51.078;12.108;2023-04-06T07:09:22;4.60;99.90
37242;DHT22;23135;51.078;12.108;2023-04-06T07:11:48;4.50;99.90
37242;DHT22;23135;51.078;12.108;2023-04-06T07:14:15;4.60;99.90
37242;DHT22;23135;51.078;12.108;2023-04-06T07:16:41;4.90;99.90
37242;DHT22;23135;51.078;12.108;2023-04-06T07:19:07;5.10;99.90
37242;DHT22;23135;51.078;12.108;2023-04-06T07:21:33;5.00;99.90
37242;DHT22;23135;51.078;12.108;2023-04-06T07:23:58;5.10;99.90
37242;DHT22;23135;51.078;12.108;2023-04-06T07:26:24;5.40;99.90
37242;DHT22;23135;51.078;12.108;2023-04-06T07:28:50;5.60;99.90
37242;DHT22;23135;51.078;12.108;2023-04-06T07:31:15;5.90;99.90
37242;DHT22;23135;51.078;12.108;2023-04-06T07:33:41;6.10;99.90
37242;DHT22;23135;51.078;12.108;2023-04-06T07:36:06;6.30;99.90
37242;DHT22;23135;51.078;12.108;2023-04-06T07:38:32;6.50;99.90
37242;DHT22;23135;51.078;12.108;2023-04-06T07:40:58;6.70;99.20
37242;DHT22;23135;51.078;12.108;2023-04-06T07:43:23;6.90;99.30
37242;DHT22;23135;51.078;12.108;2023-04-06T07:45:49;7.20;99.40
37242;DHT22;23135;51.078;12.108;2023-04-06T07:48:14;7.40;98.20
37242;DHT22;23135;51.078;12.108;2023-04-06T07:50:40;7.60;98.40
37242;DHT22;23135;51.078;12.108;2023-04-06T07:53:06;7.70;97.50
37242;DHT22;23135;51.078;12.108;2023-04-06T07:55:31;7.90;97.30
37242;DHT22;23135;51.078;12.108;2023-04-06T07:57:57;7.90;97.10
37242;DHT22;23135;51.078;12.108;2023-04-06T08:00:22;8.00;97.00
37242;DHT22;23135;51.078;12.108;2023-04-06T08:02:48;8.10;97.10
37242;DHT22;23135;51.078;12.108;2023-04-06T08:05:14;8.30;96.90
37242;DHT22;23135;51.078;12.108;2023-04-06T08:07:39;8.50;96.80
37242;DHT22;23135;51.078;12.108;2023-04-06T08:10:05;8.60;96.30
37242;DHT22;23135;51.078;12.108;2023-04-06T08:12:32;8.80;95.90
37242;DHT22;23135;51.078;12.108;2023-04-06T08:14:57;8.90;95.70
37242;DHT22;23135;51.078;12.108;2023-04-06T08:17:23;9.10;95.70
37242;DHT22;23135;51.078;12.108;2023-04-06T08:19:49;9.40;95.60
37242;DHT22;23135;51.078;12.108;2023-04-06T08:22:14;9.60;94.70
37242;DHT22;23135;51.078;12.108;2023-04-06T08:24:40;9.60;94.30
37242;DHT22;23135;51.078;12.108;2023-04-06T08:27:05;9.70;95.10
37242;DHT22;23135;51.078;12.108;2023-04-06T08:29:31;9.80;94.10
37242;DHT22;23135;51.078;12.108;2023-04-06T08:31:57;10.00;94.30
37242;DHT22;23135;51.078;12.108;2023-04-06T08:34:22;10.20;93.50
37242;DHT22;23135;51.078;12.108;2023-04-06T08:36:49;10.30;93.40
37242;DHT22;23135;51.078;12.108;2023-04-06T08:39:15;10.20;92.10
37242;DHT22;23135;51.078;12.108;2023-04-06T08:41:44;10.30;92.30
37242;DHT22;23135;51.078;12.108;2023-04-06T08:44:09;10.50;92.50
37242;DHT22;23135;51.078;12.108;2023-04-06T08:46:36;10.60;92.30
37242;DHT22;23135;51.078;12.108;2023-04-06T08:49:03;10.50;91.50
37242;DHT22;23135;51.078;12.108;2023-04-06T08:51:32;10.50;91.30
37242;DHT22;23135;51.078;12.108;2023-04-06T08:53:58;10.60;91.00
37242;DHT22;23135;51.078;12.108;2023-04-06T08:56:26;10.80;91.50
37242;DHT22;23135;51.078;12.108;2023-04-06T08:58:53;11.00;90.90
37242;DHT22;23135;51.078;12.108;2023-04-06T09:01:26;11.20;85.70
37242;DHT22;23135;51.078;12.108;2023-04-06T09:03:57;11.00;86.10
37242;DHT22;23135;51.078;12.108;2023-04-06T09:06:23;11.20;86.90
37242;DHT22;23135;51.078;12.108;2023-04-06T09:08:48;11.30;85.90
37242;DHT22;23135;51.078;12.108;2023-04-06T09:11:14;11.30;84.90
37242;DHT22;23135;51.078;12.108;2023-04-06T09:13:48;11.30;82.40
37242;DHT22;23135;51.078;12.108;2023-04-06T09:16:14;11.10;84.10
37242;DHT22;23135;51.078;12.108;2023-04-06T09:18:40;11.00;84.10
37242;DHT22;23135;51.078;12.108;2023-04-06T09:21:07;11.30;82.80
37242;DHT22;23135;51.078;12.108;2023-04-06T09:23:33;11.40;82.40
37242;DHT22;23135;51.078;12.108;2023-04-06T09:26:09;11.50;81.40
37242;DHT22;23135;51.078;12.108;2023-04-06T09:28:50;11.60;83.10
37242;DHT22;23135;51.078;12.108;2023-04-06T09:31:21;11.90;84.90
37242;DHT22;23135;51.078;12.108;2023-04-06T09:33:46;12.10;83.10
37242;DHT22;23135;51.078;12.108;2023-04-06T09:36:13;12.20;78.70
37242;DHT22;23135;51.078;12.108;2023-04-06T09:38:52;12.10;82.70
37242;DHT22;23135;51.078;12.108;2023-04-06T09:41:24;12.30;84.80
37242;DHT22;23135;51.078;12.108;2023-04-06T09:43:51;12.50;81.00
37242;DHT22;23135;51.078;12.108;2023-04-06T09:46:17;12.40;79.60
37242;DHT22;23135;51.078;12.108;2023-04-06T09:48:46;12.40;79.80
37242;DHT22;23135;51.078;12.108;2023-04-06T09:51:14;12.10;78.90
37242;DHT22;23135;51.078;12.108;2023-04-06T09:53:42;11.60;75.70
37242;DHT22;23135;51.078;12.108;2023-04-06T09:56:12;11.60;76.50
37242;DHT22;23135;51.078;12.108;2023-04-06T09:58:43;11.70;76.70
37242;DHT22;23135;51.078;12.108;2023-04-06T10:01:15;11.80;77.00
37242;DHT22;23135;51.078;12.108;2023-04-06T10:06:23;12.00;77.30
37242;DHT22;23135;51.078;12.108;2023-04-06T10:08:52;11.90;75.50
37242;DHT22;23135;51.078;12.108;2023-04-06T10:11:20;11.90;76.90
37242;DHT22;23135;51.078;12.108;2023-04-06T10:13:47;11.80;76.40
37242;DHT22;23135;51.078;12.108;2023-04-06T10:16:14;11.90;75.80
37242;DHT22;23135;51.078;12.108;2023-04-06T10:18:45;12.10;77.00
37242;DHT22;23135;51.078;12.108;2023-04-06T10:21:14;12.30;76.40
37242;DHT22;23135;51.078;12.108;2023-04-06T10:26:39;12.60;76.60
37242;DHT22;23135;51.078;12.108;2023-04-06T10:29:05;12.60;78.30
37242;DHT22;23135;51.078;12.108;2023-04-06T10:31:31;12.60;80.20
37242;DHT22;23135;51.078;12.108;2023-04-06T10:34:01;12.60;76.70
37242;DHT22;23135;51.078;12.108;2023-04-06T10:36:32;12.70;78.80
37242;DHT22;23135;51.078;12.108;2023-04-06T10:39:00;12.70;72.00
37242;DHT22;23135;51.078;12.108;2023-04-06T10:41:43;12.40;75.70
37242;DHT22;23135;51.078;12.108;2023-04-06T10:44:23;12.70;77.00
37242;DHT22;23135;51.078;12.108;2023-04-06T10:46:57;12.90;74.60
37242;DHT22;23135;51.078;12.108;2023-04-06T10:49:24;13.00;75.80
37242;DHT22;23135;51.078;12.108;2023-04-06T10:51:54;13.20;74.80
37242;DHT22;23135;51.078;12.108;2023-04-06T10:54:22;12.90;73.20
37242;DHT22;23135;51.078;12.108;2023-04-06T10:56:49;13.00;74.90
37242;DHT22;23135;51.078;12.108;2023-04-06T10:59:19;13.20;75.20
37242;DHT22;23135;51.078;12.108;2023-04-06T11:01:45;13.30;75.80
37242;DHT22;23135;51.078;12.108;2023-04-06T11:04:20;13.20;72.90
37242;DHT22;23135;51.078;12.108;2023-04-06T11:06:47;13.10;72.60
37242;DHT22;23135;51.078;12.108;2023-04-06T11:09:27;13.20;73.10
37242;DHT22;23135;51.078;12.108;2023-04-06T11:11:52;13.70;76.20
37242;DHT22;23135;51.078;12.108;2023-04-06T11:14:18;13.80;72.30
37242;DHT22;23135;51.078;12.108;2023-04-06T11:16:46;13.70;73.50
37242;DHT22;23135;51.078;12.108;2023-04-06T11:19:13;13.90;76.70
37242;DHT22;23135;51.078;12.108;2023-04-06T11:21:47;14.20;76.70
37242;DHT22;23135;51.078;12.108;2023-04-06T11:24:21;14.40;74.00
37242;DHT22;23135;51.078;12.108;2023-04-06T11:26:58;14.30;71.10
37242;DHT22;23135;51.078;12.108;2023-04-06T11:29:24;14.00;75.40
37242;DHT22;23135;51.078;12.108;2023-04-06T11:31:53;14.10;74.60
37242;DHT22;23135;51.078;12.108;2023-04-06T11:34:20;14.20;69.30
37242;DHT22;23135;51.078;12.108;2023-04-06T11:36:47;14.00;70.10
37242;DHT22;23135;51.078;12.108;2023-04-06T11:39:17;14.00;68.40
37242;DHT22;23135;51.078;12.108;2023-04-06T11:41:50;14.30;70.50
37242;DHT22;23135;51.078;12.108;2023-04-06T11:44:37;14.40;70.90
37242;DHT22;23135;51.078;12.108;2023-04-06T11:47:07;14.30;72.50
37242;DHT22;23135;51.078;12.108;2023-04-06T11:49:36;14.60;70.10
37242;DHT22;23135;51.078;12.108;2023-04-06T11:52:02;14.60;71.90
37242;DHT22;23135;51.078;12.108;2023-04-06T11:54:36;14.90;72.70
37242;DHT22;23135;51.078;12.108;2023-04-06T11:57:04;14.40;68.40
37242;DHT22;23135;51.078;12.108;2023-04-06T11:59:30;14.30;69.30
37242;DHT22;23135;51.078;12.108;2023-04-06T12:01:57;14.70;70.10
37242;DHT22;23135;51.078;12.108;2023-04-06T12:04:23;14.80;68.20
37242;DHT22;23135;51.078;12.108;2023-04-06T12:06:48;15.20;69.70
37242;DHT22;23135;51.078;12.108;2023-04-06T12:09:14;15.00;69.80
37242;DHT22;23135;51.078;12.108;2023-04-06T12:11:40;14.70;68.10
37242;DHT22;23135;51.078;12.108;2023-04-06T12:14:06;14.60;68.30
37242;DHT22;23135;51.078;12.108;2023-04-06T12:16:33;14.80;68.10
37242;DHT22;23135;51.078;12.108;2023-04-06T12:18:59;14.90;70.30
37242;DHT22;23135;51.078;12.108;2023-04-06T12:21:26;15.30;68.30
37242;DHT22;23135;51.078;12.108;2023-04-06T12:23:52;15.50;67.70
37242;DHT22;23135;51.078;12.108;2023-04-06T12:26:17;15.30;66.90
37242;DHT22;23135;51.078;12.108;2023-04-06T12:28:43;14.70;67.80
37242;DHT22;23135;51.078;12.108;2023-04-06T12:31:15;14.50;67.90
37242;DHT22;23135;51.078;12.108;2023-04-06T12:33:41;14.20;67.40
37242;DHT22;23135;51.078;12.108;2023-04-06T12:36:12;14.20;68.50
37242;DHT22;23135;51.078;12.108;2023-04-06T12:38:38;14.60;68.10
37242;DHT22;23135;51.078;12.108;2023-04-06T12:41:05;14.80;66.60
37242;DHT22;23135;51.078;12.108;2023-04-06T12:43:31;14.80;67.00
37242;DHT22;23135;51.078;12.108;2023-04-06T12:45:56;14.90;65.90
37242;DHT22;23135;51.078;12.108;2023-04-06T12:48:22;15.10;66.20
37242;DHT22;23135;51.078;12.108;2023-04-06T12:50:55;15.40;67.50
37242;DHT22;23135;51.078;12.108;2023-04-06T12:53:20;15.40;66.60
37242;DHT22;23135;51.078;12.108;2023-04-06T12:55:46;15.70;68.10
37242;DHT22;23135;51.078;12.108;2023-04-06T12:58:12;15.80;65.90
37242;DHT22;23135;51.078;12.108;2023-04-06T13:00:37;15.60;66.70
37242;DHT22;23135;51.078;12.108;2023-04-06T13:03:03;15.70;65.70
37242;DHT22;23135;51.078;12.108;2023-04-06T13:05:28;15.90;68.10
37242;DHT22;23135;51.078;12.108;2023-04-06T13:07:54;16.10;68.10
37242;DHT22;23135;51.078;12.108;2023-04-06T13:10:19;16.30;67.50
37242;DHT22;23135;51.078;12.108;2023-04-06T13:12:45;16.50;67.70
37242;DHT22;23135;51.078;12.108;2023-04-06T13:15:11;16.50;69.80
37242;DHT22;23135;51.078;12.108;2023-04-06T13:17:36;16.30;68.50
37242;DHT22;23135;51.078;12.108;2023-04-06T13:20:02;16.00;64.60
37242;DHT22;23135;51.078;12.108;2023-04-06T13:22:29;15.70;66.30
37242;DHT22;23135;51.078;12.108;2023-04-06T13:24:54;16.10;67.70
37242;DHT22;23135;51.078;12.108;2023-04-06T13:27:20;15.80;69.60
37242;DHT22;23135;51.078;12.108;2023-04-06T13:29:45;15.80;69.70
37242;DHT22;23135;51.078;12.108;2023-04-06T13:32:11;15.50;66.70
37242;DHT22;23135;51.078;12.108;2023-04-06T13:34:37;15.50;67.30
37242;DHT22;23135;51.078;12.108;2023-04-06T13:37:02;15.70;66.70
37242;DHT22;23135;51.078;12.108;2023-04-06T13:39:28;15.90;68.80
37242;DHT22;23135;51.078;12.108;2023-04-06T13:41:54;16.00;69.70
37242;DHT22;23135;51.078;12.108;2023-04-06T13:44:21;15.80;67.60
37242;DHT22;23135;51.078;12.108;2023-04-06T13:46:47;15.70;68.00
37242;DHT22;23135;51.078;12.108;2023-04-06T13:49:13;15.80;67.30
37242;DHT22;23135;51.078;12.108;2023-04-06T13:51:39;15.80;67.60
37242;DHT22;23135;51.078;12.108;2023-04-06T13:54:04;15.70;66.40
37242;DHT22;23135;51.078;12.108;2023-04-06T13:56:30;15.70;66.80
37242;DHT22;23135;51.078;12.108;2023-04-06T13:58:56;15.50;69.60
37242;DHT22;23135;51.078;12.108;2023-04-06T14:01:22;15.30;68.60
37242;DHT22;23135;51.078;12.108;2023-04-06T14:03:50;15.40;68.50
37242;DHT22;23135;51.078;12.108;2023-04-06T14:06:16;15.70;68.40
37242;DHT22;23135;51.078;12.108;2023-04-06T14:08:41;15.60;68.30
37242;DHT22;23135;51.078;12.108;2023-04-06T14:11:13;15.20;68.10
37242;DHT22;23135;51.078;12.108;2023-04-06T14:13:39;15.20;69.60
37242;DHT22;23135;51.078;12.108;2023-04-06T14:16:05;15.10;69.30
37242;DHT22;23135;51.078;12.108;2023-04-06T14:18:31;15.00;69.00
37242;DHT22;23135;51.078;12.108;2023-04-06T14:20:57;15.00;70.50
37242;DHT22;23135;51.078;12.108;2023-04-06T14:23:24;14.90;69.10
37242;DHT22;23135;51.078;12.108;2023-04-06T14:26:00;14.80;68.20
37242;DHT22;23135;51.078;12.108;2023-04-06T14:28:26;14.90;69.60
37242;DHT22;23135;51.078;12.108;2023-04-06T14:30:52;15.30;68.90
37242;DHT22;23135;51.078;12.108;2023-04-06T14:33:17;15.20;70.70
37242;DHT22;23135;51.078;12.108;2023-04-06T14:35:43;15.20;70.70
37242;DHT22;23135;51.078;12.108;2023-04-06T14:38:08;15.10;68.50
37242;DHT22;23135;51.078;12.108;2023-04-06T14:40:35;15.20;68.50
37242;DHT22;23135;51.078;12.108;2023-04-06T14:43:01;15.20;68.20
37242;DHT22;23135;51.078;12.108;2023-04-06T14:45:27;15.10;68.00
37242;DHT22;23135;51.078;12.108;2023-04-06T14:47:53;15.10;68.20
37242;DHT22;23135;51.078;12.108;2023-04-06T14:50:18;15.20;68.40
37242;DHT22;23135;51.078;12.108;2023-04-06T14:52:44;15.20;68.40
37242;DHT22;23135;51.078;12.108;2023-04-06T14:55:11;15.20;68.50
37242;DHT22;23135;51.078;12.108;2023-04-06T14:57:38;15.20;69.60
37242;DHT22;23135;51.078;12.108;2023-04-06T15:00:03;15.10;71.30
37242;DHT22;23135;51.078;12.108;2023-04-06T15:02:29;14.70;71.40
37242;DHT22;23135;51.078;12.108;2023-04-06T15:04:57;14.60;73.00
37242;DHT22;23135;51.078;12.108;2023-04-06T15:07:22;14.50;72.60
37242;DHT22;23135;51.078;12.108;2023-04-06T15:09:48;14.40;69.70
37242;DHT22;23135;51.078;12.108;2023-04-06T15:12:13;14.30;69.80
37242;DHT22;23135;51.078;12.108;2023-04-06T15:14:39;14.20;69.50
37242;DHT22;23135;51.078;12.108;2023-04-06T15:17:04;14.00;68.30
37242;DHT22;23135;51.078;12.108;2023-04-06T15:19:31;13.70;68.10
37242;DHT22;23135;51.078;12.108;2023-04-06T15:21:56;13.70;68.20
37242;DHT22;23135;51.078;12.108;2023-04-06T15:24:22;13.40;69.30
37242;DHT22;23135;51.078;12.108;2023-04-06T15:26:47;13.20;72.20